Terminal Aerodrome Forecast
Issued by NWS

Home | Current Version | Previous Version | Text Only | Print | Product List | Glossary On
Versions: 1 2 3 4 5 6 7 8 9 10 11 12 13 14 15 16 17
000
FTAK31 PAJN 240500
TAFAYA
TAF
PAYA 240535Z 2406/2506 VRB03KT 6SM BR OVC007
      TEMPO 2410/2414 3SM BR OVC005
     FM241800 VRB04KT P6SM BCFG OVC010
     FM242100 VRB04KT P6SM BKN015
     FM250300 VRB04KT P6SM OVC025
      AMD LTD TO CLD VIS AND WIND 2406/2410=

USA.gov is the U.S. government's official web portal to all federal, state and local government web resources and services.